Time;durP1;ratioP1;P1;durP2;ratioP2;P2;SDS_P1;SDS_P2;PMS_P1;PMS_P2;Temp;Humidity;BMP_temperature;BMP_pressure;BME280_temperature;BME280_humidity;BME280_pressure;Samples;Min_cycle;Max_cycle;Signal;HPM_P1;HPM_P2
2022/12/24 00:02:12;;;;;;;1.67;1.08;;;;;;;;;;5028889;27;20204;-68
2022/12/24 00:04:39;;;;;;;1.42;1.33;;;;;;;;;;5025521;28;20214;-68
2022/12/24 00:07:05;;;;;;;0.90;0.90;;;;;;;;;;5028090;28;20209;-68
2022/12/24 00:09:33;;;;;;;1.83;1.10;;;;;;;;;;5033901;28;20201;-69
2022/12/24 00:11:59;;;;;;;3.20;1.40;;;;;;;;;;5035960;28;20209;-68
2022/12/24 00:14:25;;;;;;;1.58;1.25;;;;;;;;;;5023632;28;20218;-68
2022/12/24 00:16:51;;;;;;;1.90;1.40;;;;;;;;;;5029208;28;20216;-68
2022/12/24 00:19:18;;;;;;;1.40;1.30;;;;;;;;;;5038338;28;20217;-68
2022/12/24 00:21:44;;;;;;;1.10;1.00;;;;;;;;;;5038754;28;20206;-67
2022/12/24 00:24:10;;;;;;;1.65;1.00;;;;;;;;;;5040284;28;20208;-67
2022/12/24 00:26:38;;;;;;;2.05;1.25;;;;;;;;;;5035284;27;20235;-67
2022/12/24 00:29:04;;;;;;;2.08;1.00;;;;;;;;;;5027615;28;20229;-67
2022/12/24 00:31:31;;;;;;;2.22;1.60;;;;;;;;;;5040303;28;20239;-67
2022/12/24 00:33:57;;;;;;;2.50;1.38;;;;;;;;;;5040141;28;20202;-67
2022/12/24 00:36:24;;;;;;;2.50;1.63;;;;;;;;;;5040656;28;20198;-67
2022/12/24 00:38:50;;;;;;;1.40;1.30;;;;;;;;;;5039652;28;20251;-67
2022/12/24 00:41:27;;;;;;;3.20;1.48;;;;;;;;;;5040060;28;20209;-67
2022/12/24 00:43:55;;;;;;;3.20;1.27;;;;;;;;;;5040128;28;20272;-67
2022/12/24 00:46:22;;;;;;;0.98;0.98;;;;;;;;;;5040245;28;20202;-67
2022/12/24 00:48:48;;;;;;;1.60;1.10;;;;;;;;;;5039446;28;20235;-67
2022/12/24 00:51:15;;;;;;;1.27;0.95;;;;;;;;;;5040018;28;20230;-67
2022/12/24 00:53:41;;;;;;;2.05;0.90;;;;;;;;;;5039051;28;20198;-67
2022/12/24 00:56:07;;;;;;;0.93;0.90;;;;;;;;;;5039899;28;20227;-67
2022/12/24 00:58:34;;;;;;;0.90;0.90;;;;;;;;;;5039597;28;20201;-67
2022/12/24 01:01:02;;;;;;;2.03;1.02;;;;;;;;;;5039431;28;20225;-67
2022/12/24 01:03:34;;;;;;;3.63;1.20;;;;;;;;;;5039412;28;20194;-67
2022/12/24 01:05:59;;;;;;;2.15;1.00;;;;;;;;;;5039664;28;20198;-68
2022/12/24 01:08:25;;;;;;;3.35;1.30;;;;;;;;;;5039011;28;20194;-67
2022/12/24 01:10:52;;;;;;;1.80;1.00;;;;;;;;;;5039852;28;20201;-67
2022/12/24 01:13:18;;;;;;;4.25;1.15;;;;;;;;;;5039694;28;20201;-67
2022/12/24 01:15:44;;;;;;;2.83;1.15;;;;;;;;;;5039590;28;20202;-67
2022/12/24 01:18:12;;;;;;;1.45;0.93;;;;;;;;;;5039232;28;20204;-67
2022/12/24 01:20:38;;;;;;;4.38;1.15;;;;;;;;;;5039650;28;20218;-67
2022/12/24 01:23:06;;;;;;;1.75;1.20;;;;;;;;;;5039172;28;20232;-67
2022/12/24 01:25:32;;;;;;;2.88;0.90;;;;;;;;;;5039553;28;20223;-67
2022/12/24 01:27:58;;;;;;;4.63;1.10;;;;;;;;;;5039232;28;20218;-67
2022/12/24 01:30:24;;;;;;;2.58;1.10;;;;;;;;;;5039107;28;20194;-67
2022/12/24 01:32:51;;;;;;;2.88;1.00;;;;;;;;;;5039143;28;20197;-67
2022/12/24 01:35:18;;;;;;;5.72;1.17;;;;;;;;;;5039294;28;20205;-67
2022/12/24 01:37:44;;;;;;;3.47;1.10;;;;;;;;;;5039198;28;20197;-67
2022/12/24 01:45:43;;;;;;;3.42;1.20;;;;;;;;;;5039135;28;20197;-67
2022/12/24 01:48:14;;;;;;;4.95;0.90;;;;;;;;;;5038957;28;20206;-67
2022/12/24 01:50:42;;;;;;;7.10;1.38;;;;;;;;;;5039406;28;20531;-67
2022/12/24 01:53:09;;;;;;;2.97;1.60;;;;;;;;;;5039257;28;20202;-67
2022/12/24 01:55:36;;;;;;;4.30;1.60;;;;;;;;;;5039455;28;20201;-67
2022/12/24 01:58:03;;;;;;;2.42;1.30;;;;;;;;;;5038874;28;20389;-67
2022/12/24 02:00:29;;;;;;;1.42;1.13;;;;;;;;;;5038766;28;20217;-67
2022/12/24 02:02:55;;;;;;;2.38;1.42;;;;;;;;;;5039433;28;20486;-67
2022/12/24 02:05:23;;;;;;;4.13;1.40;;;;;;;;;;5041869;28;20250;-67
2022/12/24 02:07:51;;;;;;;5.32;1.55;;;;;;;;;;5042494;28;20427;-67
2022/12/24 02:10:18;;;;;;;7.72;1.65;;;;;;;;;;5041972;28;20201;-67
2022/12/24 02:12:44;;;;;;;8.23;1.50;;;;;;;;;;5042324;28;20262;-67
2022/12/24 02:15:12;;;;;;;4.93;1.23;;;;;;;;;;5042689;28;20201;-67
2022/12/24 02:17:43;;;;;;;4.63;1.77;;;;;;;;;;5042389;28;20235;-67
2022/12/24 02:20:24;;;;;;;6.07;1.60;;;;;;;;;;5041830;28;20225;-67
2022/12/24 02:23:06;;;;;;;7.78;1.60;;;;;;;;;;5042200;28;20204;-67
2022/12/24 02:25:41;;;;;;;3.70;1.83;;;;;;;;;;5042010;28;20220;-67
2022/12/24 02:28:12;;;;;;;5.25;1.30;;;;;;;;;;5041731;28;20582;-68
2022/12/24 02:30:43;;;;;;;3.95;1.48;;;;;;;;;;5042189;28;20239;-67
2022/12/24 02:33:25;;;;;;;1.98;1.45;;;;;;;;;;5042052;28;20198;-68
2022/12/24 02:35:55;;;;;;;1.52;1.40;;;;;;;;;;5042002;28;20501;-67
2022/12/24 02:38:25;;;;;;;3.60;1.25;;;;;;;;;;5041976;28;20202;-67
2022/12/24 02:40:53;;;;;;;5.00;1.38;;;;;;;;;;5042030;28;20214;-67
2022/12/24 02:43:22;;;;;;;3.95;1.38;;;;;;;;;;5042077;28;20273;-67
2022/12/24 02:45:54;;;;;;;1.88;1.40;;;;;;;;;;5042259;28;20198;-68
2022/12/24 02:48:22;;;;;;;4.15;1.65;;;;;;;;;;5041428;28;20193;-67
2022/12/24 02:50:58;;;;;;;5.82;1.48;;;;;;;;;;5041716;28;20194;-67
2022/12/24 02:53:25;;;;;;;4.53;1.73;;;;;;;;;;5042046;28;20193;-67
2022/12/24 02:55:57;;;;;;;5.10;1.77;;;;;;;;;;5042072;28;20198;-67
2022/12/24 02:58:29;;;;;;;3.60;1.33;;;;;;;;;;5041462;28;20263;-67
2022/12/24 03:01:15;;;;;;;5.35;1.60;;;;;;;;;;5041409;28;20409;-67
2022/12/24 03:03:46;;;;;;;4.18;1.83;;;;;;;;;;5041898;28;20377;-67
2022/12/24 03:06:16;;;;;;;8.10;1.83;;;;;;;;;;5041631;28;20243;-67
2022/12/24 03:08:45;;;;;;;4.03;1.38;;;;;;;;;;5041221;28;20198;-67
2022/12/24 03:11:12;;;;;;;3.50;1.65;;;;;;;;;;5041426;28;20194;-67
2022/12/24 03:13:40;;;;;;;5.03;1.90;;;;;;;;;;5041301;28;20435;-67
2022/12/24 03:16:09;;;;;;;6.93;1.98;;;;;;;;;;5040714;28;20206;-67
2022/12/24 03:18:37;;;;;;;4.25;1.80;;;;;;;;;;5041085;28;20201;-67
2022/12/24 03:21:07;;;;;;;6.50;1.98;;;;;;;;;;5041211;28;20545;-67
2022/12/24 03:23:33;;;;;;;1.65;1.40;;;;;;;;;;5041272;28;20198;-67
2022/12/24 03:26:01;;;;;;;5.38;1.42;;;;;;;;;;5041207;28;20190;-67
2022/12/24 03:28:28;;;;;;;4.07;1.60;;;;;;;;;;5040816;28;20409;-67
2022/12/24 03:30:54;;;;;;;4.15;1.83;;;;;;;;;;5041372;28;20430;-67
2022/12/24 03:33:22;;;;;;;4.80;1.88;;;;;;;;;;5041164;28;20509;-67
2022/12/24 03:35:48;;;;;;;5.85;1.65;;;;;;;;;;5041240;28;20198;-67
2022/12/24 03:38:14;;;;;;;3.05;1.50;;;;;;;;;;5040598;28;20219;-67
2022/12/24 03:40:41;;;;;;;1.73;1.50;;;;;;;;;;5040893;28;20455;-67
2022/12/24 03:43:07;;;;;;;4.25;1.67;;;;;;;;;;5041052;28;20427;-67
2022/12/24 03:45:33;;;;;;;9.85;1.92;;;;;;;;;;5041226;28;20429;-67
2022/12/24 03:47:59;;;;;;;6.82;1.88;;;;;;;;;;5040824;28;20532;-67
2022/12/24 03:50:27;;;;;;;2.75;1.80;;;;;;;;;;5040825;28;20194;-67
2022/12/24 03:52:54;;;;;;;6.82;1.77;;;;;;;;;;5040852;28;20198;-67
2022/12/24 03:55:20;;;;;;;5.30;1.80;;;;;;;;;;5041016;28;20198;-67
2022/12/24 03:57:46;;;;;;;6.38;1.60;;;;;;;;;;5040948;28;20467;-67
2022/12/24 04:00:13;;;;;;;3.10;1.70;;;;;;;;;;5040357;28;20229;-67
2022/12/24 04:02:39;;;;;;;3.47;1.30;;;;;;;;;;5040711;28;20204;-67
2022/12/24 04:05:06;;;;;;;5.07;1.70;;;;;;;;;;5040642;28;20239;-67
2022/12/24 04:07:34;;;;;;;5.22;1.98;;;;;;;;;;5040498;28;20206;-67
2022/12/24 04:10:00;;;;;;;2.97;1.33;;;;;;;;;;5040324;28;20243;-67
2022/12/24 04:12:26;;;;;;;4.88;1.50;;;;;;;;;;5040637;28;20309;-67
2022/12/24 04:14:53;;;;;;;3.83;1.83;;;;;;;;;;5040573;28;20202;-67
2022/12/24 04:17:19;;;;;;;4.38;1.50;;;;;;;;;;5040485;28;20198;-67
2022/12/24 04:19:45;;;;;;;4.90;1.60;;;;;;;;;;5039922;28;20198;-67
2022/12/24 04:22:11;;;;;;;5.57;1.70;;;;;;;;;;5040235;28;20212;-67
2022/12/24 04:24:39;;;;;;;5.93;1.48;;;;;;;;;;5040631;28;20198;-67
2022/12/24 04:27:05;;;;;;;12.75;1.92;;;;;;;;;;5039434;28;20200;-67
2022/12/24 04:29:31;;;;;;;3.70;1.60;;;;;;;;;;5039424;28;20209;-67
2022/12/24 04:31:58;;;;;;;4.90;1.58;;;;;;;;;;5040086;28;20194;-67
2022/12/24 04:34:24;;;;;;;4.20;1.33;;;;;;;;;;5040003;28;20198;-67
2022/12/24 04:36:50;;;;;;;4.55;1.50;;;;;;;;;;5040071;28;20198;-67
2022/12/24 04:39:16;;;;;;;6.97;1.70;;;;;;;;;;5039695;28;20197;-67
2022/12/24 04:41:44;;;;;;;4.45;1.70;;;;;;;;;;5040081;28;20417;-67
2022/12/24 04:44:10;;;;;;;5.43;1.40;;;;;;;;;;5040081;28;20206;-67
2022/12/24 04:46:37;;;;;;;7.03;1.67;;;;;;;;;;5039934;28;20479;-67
2022/12/24 04:49:03;;;;;;;2.58;1.42;;;;;;;;;;5039461;28;20255;-67
2022/12/24 04:51:29;;;;;;;4.95;1.83;;;;;;;;;;5039704;28;20494;-67
2022/12/24 04:53:56;;;;;;;4.63;1.70;;;;;;;;;;5039835;28;20506;-67
2022/12/24 04:56:23;;;;;;;4.03;1.80;;;;;;;;;;5039999;28;20193;-67
2022/12/24 04:58:51;;;;;;;5.32;1.38;;;;;;;;;;5039413;28;20200;-67
2022/12/24 05:01:18;;;;;;;2.50;1.48;;;;;;;;;;5039799;28;20214;-67
2022/12/24 05:03:44;;;;;;;3.17;1.95;;;;;;;;;;5039622;28;20501;-67
2022/12/24 05:06:12;;;;;;;7.10;1.80;;;;;;;;;;5039952;28;20378;-67
2022/12/24 05:08:38;;;;;;;7.07;1.83;;;;;;;;;;5039441;28;20422;-67
2022/12/24 05:11:05;;;;;;;7.97;1.75;;;;;;;;;;5039584;28;20193;-67
2022/12/24 05:13:31;;;;;;;4.75;1.50;;;;;;;;;;5039833;28;20205;-67
2022/12/24 05:15:59;;;;;;;8.63;1.98;;;;;;;;;;5039492;28;20202;-67
2022/12/24 05:18:25;;;;;;;6.63;2.13;;;;;;;;;;5039000;28;20202;-67
2022/12/24 05:20:52;;;;;;;5.43;2.15;;;;;;;;;;5039676;28;20225;-67
2022/12/24 05:28:46;;;;;;;5.78;2.05;;;;;;;;;;5038833;28;20227;-67
2022/12/24 05:31:14;;;;;;;3.53;1.50;;;;;;;;;;5039627;28;20239;-67
2022/12/24 05:33:40;;;;;;;4.75;1.58;;;;;;;;;;5039536;28;20524;-67
2022/12/24 05:36:07;;;;;;;3.50;1.50;;;;;;;;;;5039728;28;20197;-68
2022/12/24 05:38:33;;;;;;;6.38;2.17;;;;;;;;;;5039011;28;20201;-67
2022/12/24 05:40:59;;;;;;;7.90;1.92;;;;;;;;;;5042823;28;20235;-67
2022/12/24 05:43:26;;;;;;;6.32;2.10;;;;;;;;;;5042680;28;20198;-67
2022/12/24 05:45:57;;;;;;;6.88;2.55;;;;;;;;;;5043146;28;20242;-67
2022/12/24 05:48:24;;;;;;;10.45;3.45;;;;;;;;;;5042501;28;20198;-67
2022/12/24 05:50:50;;;;;;;14.82;7.90;;;;;;;;;;5042838;28;20194;-67
2022/12/24 05:53:17;;;;;;;18.98;11.90;;;;;;;;;;5042845;28;20219;-67
2022/12/24 05:55:43;;;;;;;15.18;8.32;;;;;;;;;;5042737;28;20543;-67
2022/12/24 05:58:09;;;;;;;16.20;6.85;;;;;;;;;;5042154;27;20540;-67
2022/12/24 06:00:36;;;;;;;13.07;5.90;;;;;;;;;;5042668;28;20217;-67
2022/12/24 06:03:02;;;;;;;14.27;4.68;;;;;;;;;;5042673;28;20231;-67
2022/12/24 06:05:29;;;;;;;7.47;1.92;;;;;;;;;;5042778;28;20213;-67
2022/12/24 06:07:56;;;;;;;12.57;2.42;;;;;;;;;;5042549;28;20429;-67
2022/12/24 06:10:22;;;;;;;5.55;2.70;;;;;;;;;;5042495;28;20197;-67
2022/12/24 06:12:49;;;;;;;4.93;2.70;;;;;;;;;;5042452;28;20430;-67
2022/12/24 06:15:15;;;;;;;5.18;2.10;;;;;;;;;;5042529;28;20204;-67
2022/12/24 06:17:41;;;;;;;9.52;2.13;;;;;;;;;;5042710;28;20520;-67
2022/12/24 06:20:08;;;;;;;5.43;1.70;;;;;;;;;;5042005;28;20529;-67
2022/12/24 06:22:36;;;;;;;2.95;2.08;;;;;;;;;;5042284;28;20420;-67
2022/12/24 06:25:02;;;;;;;3.92;1.90;;;;;;;;;;5042172;28;20268;-67
2022/12/24 06:27:28;;;;;;;6.28;2.20;;;;;;;;;;5042350;28;20228;-67
2022/12/24 06:29:55;;;;;;;9.77;2.15;;;;;;;;;;5042086;28;20194;-67
2022/12/24 06:32:21;;;;;;;8.52;2.05;;;;;;;;;;5042128;28;20238;-67
2022/12/24 06:34:47;;;;;;;9.75;2.05;;;;;;;;;;5042181;28;20204;-67
2022/12/24 06:37:17;;;;;;;7.13;2.10;;;;;;;;;;5042095;28;20205;-67
2022/12/24 06:39:45;;;;;;;9.40;2.10;;;;;;;;;;5041410;28;20198;-68
2022/12/24 06:42:11;;;;;;;7.50;1.73;;;;;;;;;;5041673;28;20224;-67
2022/12/24 06:44:37;;;;;;;8.18;2.05;;;;;;;;;;5042083;28;20198;-68
2022/12/24 06:47:04;;;;;;;4.75;2.65;;;;;;;;;;5042010;28;20205;-67
2022/12/24 06:49:30;;;;;;;8.55;2.60;;;;;;;;;;5041427;27;20197;-67
2022/12/24 06:51:56;;;;;;;7.32;2.78;;;;;;;;;;5040959;28;20539;-68
2022/12/24 06:54:22;;;;;;;8.75;2.90;;;;;;;;;;5041731;28;20541;-69
2022/12/24 06:56:50;;;;;;;5.47;2.50;;;;;;;;;;5041982;28;20403;-69
2022/12/24 06:59:16;;;;;;;5.97;2.88;;;;;;;;;;5041505;28;20236;-69
2022/12/24 07:01:42;;;;;;;7.38;2.80;;;;;;;;;;5041732;28;20271;-69
2022/12/24 07:04:09;;;;;;;6.22;2.30;;;;;;;;;;5041733;27;20198;-69
2022/12/24 07:06:35;;;;;;;5.13;2.22;;;;;;;;;;5041497;28;20236;-69
2022/12/24 07:09:02;;;;;;;6.90;2.55;;;;;;;;;;5041137;28;20237;-69
2022/12/24 07:11:28;;;;;;;7.03;2.40;;;;;;;;;;5041658;28;20194;-69
2022/12/24 07:13:55;;;;;;;9.57;2.13;;;;;;;;;;5041352;28;20235;-69
2022/12/24 07:16:22;;;;;;;3.17;2.33;;;;;;;;;;5041517;28;20210;-69
2022/12/24 07:18:48;;;;;;;5.18;2.47;;;;;;;;;;5041163;27;20362;-69
2022/12/24 07:21:14;;;;;;;7.53;2.17;;;;;;;;;;5041144;28;20266;-69
2022/12/24 07:23:40;;;;;;;3.85;1.80;;;;;;;;;;5041253;28;20206;-69
2022/12/24 07:26:07;;;;;;;8.07;1.88;;;;;;;;;;5041471;28;20223;-69
2022/12/24 07:28:33;;;;;;;4.47;1.90;;;;;;;;;;5040954;28;20285;-69
2022/12/24 07:31:01;;;;;;;3.60;1.70;;;;;;;;;;5041248;27;20201;-69
2022/12/24 07:33:27;;;;;;;4.30;1.95;;;;;;;;;;5041051;28;20198;-69
2022/12/24 07:36:00;;;;;;;3.58;2.10;;;;;;;;;;5041037;28;20521;-69
2022/12/24 07:38:27;;;;;;;3.63;1.90;;;;;;;;;;5040656;28;20424;-69
2022/12/24 07:40:53;;;;;;;4.90;2.30;;;;;;;;;;5040915;28;20198;-69
2022/12/24 07:43:19;;;;;;;3.22;1.90;;;;;;;;;;5040997;28;20501;-69
2022/12/24 07:45:45;;;;;;;5.07;2.03;;;;;;;;;;5041039;28;20214;-69
2022/12/24 07:48:13;;;;;;;7.13;2.65;;;;;;;;;;5040508;28;20407;-69
2022/12/24 07:50:39;;;;;;;3.50;2.10;;;;;;;;;;5040597;28;20201;-69
2022/12/24 07:53:06;;;;;;;2.97;2.42;;;;;;;;;;5040932;28;20201;-69
2022/12/24 07:55:32;;;;;;;4.78;2.30;;;;;;;;;;5040816;28;20205;-69
2022/12/24 07:57:58;;;;;;;5.82;2.20;;;;;;;;;;5040605;28;20198;-69
2022/12/24 08:00:24;;;;;;;4.45;2.28;;;;;;;;;;5040683;27;20197;-69
2022/12/24 08:02:51;;;;;;;3.75;2.45;;;;;;;;;;5040233;28;20247;-70
2022/12/24 08:05:18;;;;;;;4.65;2.63;;;;;;;;;;5040533;28;20198;-69
2022/12/24 08:07:44;;;;;;;3.47;2.53;;;;;;;;;;5040446;28;20235;-69
2022/12/24 08:10:11;;;;;;;3.88;2.20;;;;;;;;;;5040313;28;20202;-69
2022/12/24 08:12:37;;;;;;;2.67;1.88;;;;;;;;;;5040594;28;20194;-69
2022/12/24 08:15:03;;;;;;;4.40;2.28;;;;;;;;;;5040440;28;20205;-69
2022/12/24 08:17:30;;;;;;;6.75;2.17;;;;;;;;;;5040269;28;20243;-69
2022/12/24 08:19:56;;;;;;;5.20;2.15;;;;;;;;;;5040117;28;20209;-69
2022/12/24 08:22:23;;;;;;;10.10;2.40;;;;;;;;;;5040779;28;20225;-69
2022/12/24 08:24:50;;;;;;;6.15;2.50;;;;;;;;;;5040455;27;20194;-69
2022/12/24 08:27:16;;;;;;;7.75;2.83;;;;;;;;;;5040265;28;20221;-69
2022/12/24 08:29:42;;;;;;;7.65;2.60;;;;;;;;;;5039976;28;20197;-69
2022/12/24 08:32:08;;;;;;;7.65;2.47;;;;;;;;;;5040075;28;20227;-69
2022/12/24 08:34:35;;;;;;;24.23;10.60;;;;;;;;;;5040292;28;20198;-69
2022/12/24 08:37:01;;;;;;;14.48;4.70;;;;;;;;;;5040162;28;20197;-69
2022/12/24 08:39:29;;;;;;;15.10;8.32;;;;;;;;;;5040179;28;20220;-69
2022/12/24 08:41:55;;;;;;;10.98;5.20;;;;;;;;;;5039866;28;20284;-69
2022/12/24 08:44:22;;;;;;;13.93;4.50;;;;;;;;;;5040055;28;20202;-69
2022/12/24 08:46:48;;;;;;;11.07;3.22;;;;;;;;;;5039788;27;20235;-69
2022/12/24 08:49:14;;;;;;;11.80;3.25;;;;;;;;;;5039801;28;20198;-69
2022/12/24 08:51:41;;;;;;;8.20;2.97;;;;;;;;;;5040023;28;20247;-69
2022/12/24 08:54:07;;;;;;;8.50;2.90;;;;;;;;;;5039933;28;20205;-69
2022/12/24 08:56:34;;;;;;;8.10;2.95;;;;;;;;;;5039889;28;20198;-69
2022/12/24 08:59:01;;;;;;;10.30;3.03;;;;;;;;;;5039488;28;20234;-69
2022/12/24 09:01:27;;;;;;;6.53;3.25;;;;;;;;;;5039630;28;20206;-69
2022/12/24 09:03:53;;;;;;;6.47;2.47;;;;;;;;;;5039891;28;20392;-69
2022/12/24 09:06:20;;;;;;;6.85;2.42;;;;;;;;;;5039783;28;20366;-69
2022/12/24 09:08:46;;;;;;;8.95;3.58;;;;;;;;;;5039500;28;20398;-69
2022/12/24 09:11:14;;;;;;;12.77;5.28;;;;;;;;;;5039841;28;20211;-69
2022/12/24 09:13:41;;;;;;;13.18;4.60;;;;;;;;;;5039444;28;20205;-69
2022/12/24 09:16:08;;;;;;;7.35;3.80;;;;;;;;;;5039968;27;20276;-69
2022/12/24 09:18:35;;;;;;;9.52;2.75;;;;;;;;;;5039442;28;20198;-69
2022/12/24 09:21:02;;;;;;;7.25;2.20;;;;;;;;;;5039711;28;20206;-69
2022/12/24 09:23:28;;;;;;;12.65;2.72;;;;;;;;;;5039391;28;20217;-69
2022/12/24 09:25:54;;;;;;;12.55;2.38;;;;;;;;;;5039517;28;20378;-69
2022/12/24 09:28:21;;;;;;;8.13;2.60;;;;;;;;;;5039109;28;20217;-69
2022/12/24 09:30:55;;;;;;;10.90;2.88;;;;;;;;;;5039511;28;20206;-69
2022/12/24 09:33:22;;;;;;;12.30;2.75;;;;;;;;;;5039655;28;20515;-69
2022/12/24 09:35:50;;;;;;;10.93;2.78;;;;;;;;;;5039284;28;20210;-69
2022/12/24 09:38:16;;;;;;;18.48;4.70;;;;;;;;;;5038818;28;20505;-69
2022/12/24 09:40:43;;;;;;;21.50;5.13;;;;;;;;;;5039248;28;20540;-69
2022/12/24 09:43:13;;;;;;;13.40;3.25;;;;;;;;;;5039157;28;20218;-69
2022/12/24 09:45:43;;;;;;;11.23;2.80;;;;;;;;;;5039417;28;20222;-69
2022/12/24 09:48:14;;;;;;;8.20;2.65;;;;;;;;;;5039009;28;20406;-69
2022/12/24 09:50:42;;;;;;;9.85;2.65;;;;;;;;;;5039094;28;20202;-69
2022/12/24 09:53:12;;;;;;;12.18;2.78;;;;;;;;;;5039164;28;20237;-69
2022/12/24 09:55:42;;;;;;;11.07;2.90;;;;;;;;;;5039245;28;20230;-69
2022/12/24 09:58:16;;;;;;;7.40;2.15;;;;;;;;;;5038830;28;20198;-69
2022/12/24 10:00:42;;;;;;;10.57;2.47;;;;;;;;;;5039154;28;20197;-69
2022/12/24 10:03:14;;;;;;;9.93;3.10;;;;;;;;;;5039134;28;20221;-69
2022/12/24 10:05:43;;;;;;;10.27;2.88;;;;;;;;;;5038909;28;20198;-69
2022/12/24 10:08:14;;;;;;;10.55;2.58;;;;;;;;;;5038965;28;20427;-69
2022/12/24 10:10:44;;;;;;;6.75;2.15;;;;;;;;;;5038901;28;20556;-69
2022/12/24 10:13:15;;;;;;;12.63;2.80;;;;;;;;;;5039257;28;20198;-59
2022/12/24 10:15:46;;;;;;;11.25;2.70;;;;;;;;;;5030418;28;20198;-57
2022/12/24 10:18:22;;;;;;;12.10;2.88;;;;;;;;;;5027630;28;20217;-57
2022/12/24 10:20:51;;;;;;;7.57;2.92;;;;;;;;;;5032550;28;20533;-57
2022/12/24 10:23:21;;;;;;;9.63;2.38;;;;;;;;;;5032799;28;20462;-57
2022/12/24 10:25:49;;;;;;;10.45;2.47;;;;;;;;;;5034106;28;20216;-57
2022/12/24 10:28:16;;;;;;;12.88;2.40;;;;;;;;;;5035868;28;20411;-57
2022/12/24 10:30:44;;;;;;;12.80;2.97;;;;;;;;;;5036359;28;20588;-57
2022/12/24 10:33:15;;;;;;;9.75;2.83;;;;;;;;;;5036506;28;20198;-58
2022/12/24 10:35:46;;;;;;;13.00;3.45;;;;;;;;;;5036161;28;20213;-61
2022/12/24 10:38:12;;;;;;;8.38;2.50;;;;;;;;;;5035568;28;20217;-62
2022/12/24 10:40:41;;;;;;;15.50;4.75;;;;;;;;;;5036441;28;20243;-61
2022/12/24 10:43:12;;;;;;;12.80;3.42;;;;;;;;;;5036223;28;20226;-56
2022/12/24 10:45:41;;;;;;;11.23;2.83;;;;;;;;;;5035870;28;20214;-58
2022/12/24 10:48:09;;;;;;;12.05;2.45;;;;;;;;;;5035433;28;20217;-58
2022/12/24 10:50:39;;;;;;;9.05;2.53;;;;;;;;;;5036206;28;20209;-58
2022/12/24 10:53:12;;;;;;;8.40;2.70;;;;;;;;;;5036462;28;20407;-58
2022/12/24 10:55:38;;;;;;;13.77;3.22;;;;;;;;;;5035767;28;20214;-58
2022/12/24 10:58:06;;;;;;;12.70;3.20;;;;;;;;;;5035358;28;20210;-58
2022/12/24 11:00:33;;;;;;;12.30;2.88;;;;;;;;;;5035692;28;20214;-58
2022/12/24 11:03:06;;;;;;;12.07;2.60;;;;;;;;;;5035463;28;20293;-58
2022/12/24 11:05:33;;;;;;;8.75;2.58;;;;;;;;;;5035729;28;20406;-58
2022/12/24 11:08:00;;;;;;;13.20;2.70;;;;;;;;;;5034917;28;20206;-58
2022/12/24 11:10:27;;;;;;;12.68;3.13;;;;;;;;;;5034842;28;20237;-57
2022/12/24 11:12:54;;;;;;;11.45;3.30;;;;;;;;;;5035315;28;20210;-58
2022/12/24 11:15:22;;;;;;;12.88;2.45;;;;;;;;;;5035186;28;20222;-58
2022/12/24 11:17:52;;;;;;;17.33;5.63;;;;;;;;;;5034557;28;20214;-59
2022/12/24 11:20:23;;;;;;;9.45;2.58;;;;;;;;;;5034793;28;20217;-59
2022/12/24 11:22:49;;;;;;;11.07;2.63;;;;;;;;;;5034850;28;20293;-59
2022/12/24 11:25:19;;;;;;;8.43;2.67;;;;;;;;;;5035012;28;20214;-59
2022/12/24 11:27:49;;;;;;;12.43;3.03;;;;;;;;;;5034417;28;20226;-59
2022/12/24 11:30:21;;;;;;;8.70;2.72;;;;;;;;;;5034453;28;20267;-59
2022/12/24 11:32:48;;;;;;;7.15;2.15;;;;;;;;;;5034989;28;20252;-59
2022/12/24 11:35:15;;;;;;;11.32;2.88;;;;;;;;;;5035174;27;20209;-59
2022/12/24 11:37:42;;;;;;;11.07;2.40;;;;;;;;;;5033620;28;20485;-58
2022/12/24 11:40:19;;;;;;;10.75;2.15;;;;;;;;;;5034526;28;20210;-59
2022/12/24 11:42:47;;;;;;;9.75;2.10;;;;;;;;;;5034176;28;20247;-59
2022/12/24 11:45:18;;;;;;;16.23;2.95;;;;;;;;;;5035002;28;20213;-59
2022/12/24 11:47:45;;;;;;;10.57;2.03;;;;;;;;;;5034505;28;20217;-59
2022/12/24 11:50:22;;;;;;;8.25;2.40;;;;;;;;;;5034583;28;20221;-59
2022/12/24 11:52:49;;;;;;;10.18;2.13;;;;;;;;;;5034818;28;20206;-59
2022/12/24 11:55:21;;;;;;;12.13;2.30;;;;;;;;;;5034931;28;20262;-59
2022/12/24 11:57:52;;;;;;;12.38;2.45;;;;;;;;;;5034167;28;20209;-59
2022/12/24 12:00:18;;;;;;;12.48;3.22;;;;;;;;;;5034613;28;20406;-59
2022/12/24 12:02:47;;;;;;;11.32;2.53;;;;;;;;;;5034500;28;20481;-59
2022/12/24 12:05:17;;;;;;;8.32;2.85;;;;;;;;;;5034690;28;20216;-59
2022/12/24 12:07:45;;;;;;;9.48;2.15;;;;;;;;;;5034041;28;20206;-59
2022/12/24 12:10:16;;;;;;;7.70;2.60;;;;;;;;;;5034253;27;20225;-59
2022/12/24 12:12:45;;;;;;;10.95;2.53;;;;;;;;;;5034374;28;20247;-60
2022/12/24 12:15:13;;;;;;;8.27;2.42;;;;;;;;;;5034453;28;20214;-59
2022/12/24 12:17:42;;;;;;;7.95;2.38;;;;;;;;;;5034144;28;20214;-59
2022/12/24 12:20:11;;;;;;;7.13;2.30;;;;;;;;;;5034105;28;20449;-61
2022/12/24 12:22:42;;;;;;;9.05;2.67;;;;;;;;;;5034532;28;20218;-60
2022/12/24 12:25:17;;;;;;;11.52;2.20;;;;;;;;;;5034477;28;20221;-59
2022/12/24 12:27:45;;;;;;;10.13;2.22;;;;;;;;;;5034209;28;20637;-60
2022/12/24 12:30:15;;;;;;;12.93;2.10;;;;;;;;;;5034077;28;20213;-60
2022/12/24 12:32:45;;;;;;;8.02;2.15;;;;;;;;;;5034402;28;20206;-60
2022/12/24 12:35:16;;;;;;;9.25;1.88;;;;;;;;;;5034415;28;20439;-60
2022/12/24 12:37:44;;;;;;;11.65;1.98;;;;;;;;;;5033968;28;20201;-64
2022/12/24 12:40:13;;;;;;;6.32;2.00;;;;;;;;;;5033693;28;20206;-59
2022/12/24 12:42:39;;;;;;;9.40;2.25;;;;;;;;;;5033982;28;20216;-59
2022/12/24 12:45:20;;;;;;;10.02;2.10;;;;;;;;;;5033786;28;20236;-59
2022/12/24 12:47:54;;;;;;;6.05;2.10;;;;;;;;;;5033715;27;20210;-59
2022/12/24 12:50:23;;;;;;;11.57;2.20;;;;;;;;;;5032519;28;20210;-59
2022/12/24 12:52:57;;;;;;;11.73;2.22;;;;;;;;;;5033666;28;20214;-59
2022/12/24 12:55:30;;;;;;;10.88;2.35;;;;;;;;;;5033783;28;20217;-59
2022/12/24 12:57:59;;;;;;;8.88;2.55;;;;;;;;;;5033431;28;20209;-57
2022/12/24 13:00:26;;;;;;;13.15;2.72;;;;;;;;;;5033576;28;20214;-59
2022/12/24 13:03:02;;;;;;;5.68;2.00;;;;;;;;;;5033880;28;20221;-60
2022/12/24 13:05:37;;;;;;;7.72;2.20;;;;;;;;;;5034177;28;20278;-59
2022/12/24 13:08:12;;;;;;;7.13;2.33;;;;;;;;;;5033315;28;20544;-59
2022/12/24 13:10:47;;;;;;;7.38;1.90;;;;;;;;;;5034507;28;20566;-59
2022/12/24 13:13:28;;;;;;;8.70;2.30;;;;;;;;;;5033887;28;20561;-58
2022/12/24 13:16:05;;;;;;;11.77;2.53;;;;;;;;;;5035016;28;20209;-59
2022/12/24 13:18:43;;;;;;;8.82;2.22;;;;;;;;;;5034055;28;20193;-57
2022/12/24 13:21:15;;;;;;;10.85;2.63;;;;;;;;;;5025008;28;20511;-59
2022/12/24 13:23:41;;;;;;;8.48;2.20;;;;;;;;;;5038858;28;20217;-59
2022/12/24 13:26:11;;;;;;;8.60;2.40;;;;;;;;;;5038453;28;20209;-59
2022/12/24 13:28:37;;;;;;;7.28;2.45;;;;;;;;;;5038127;28;20217;-70
2022/12/24 13:31:24;;;;;;;12.23;3.20;;;;;;;;;;5037901;28;20433;-71
2022/12/24 13:33:52;;;;;;;10.25;2.08;;;;;;;;;;5037569;28;20444;-72
2022/12/24 13:36:19;;;;;;;9.07;2.53;;;;;;;;;;5038711;28;20243;-72
2022/12/24 13:38:47;;;;;;;11.40;3.13;;;;;;;;;;5039055;28;20198;-72
2022/12/24 13:41:28;;;;;;;8.48;2.60;;;;;;;;;;5039431;28;20428;-72
2022/12/24 13:44:03;;;;;;;8.48;2.28;;;;;;;;;;5047138;28;20228;-72
2022/12/24 13:46:49;;;;;;;9.05;2.03;;;;;;;;;;5039177;28;20197;-72
2022/12/24 13:49:19;;;;;;;5.45;2.30;;;;;;;;;;5038931;28;20399;-72
2022/12/24 13:51:46;;;;;;;9.73;2.78;;;;;;;;;;5039302;28;20205;-72
2022/12/24 13:54:13;;;;;;;10.27;2.72;;;;;;;;;;5039126;28;20239;-72
2022/12/24 13:56:40;;;;;;;10.70;2.47;;;;;;;;;;5039129;28;20205;-72
2022/12/24 13:59:12;;;;;;;7.78;2.40;;;;;;;;;;5038647;28;20197;-72
2022/12/24 14:01:39;;;;;;;5.25;2.42;;;;;;;;;;5042330;28;20437;-72
2022/12/24 14:04:08;;;;;;;11.40;2.92;;;;;;;;;;5042582;28;20251;-72
2022/12/24 14:06:36;;;;;;;14.63;2.97;;;;;;;;;;5042323;28;20216;-72
2022/12/24 14:09:07;;;;;;;12.40;3.20;;;;;;;;;;5041971;28;20197;-72
2022/12/24 14:11:58;;;;;;;14.40;3.17;;;;;;;;;;5042417;28;20212;-72
2022/12/24 14:14:27;;;;;;;9.35;2.67;;;;;;;;;;5042114;28;20243;-72
2022/12/24 14:16:55;;;;;;;9.25;2.78;;;;;;;;;;5042369;28;20198;-72
2022/12/24 14:19:22;;;;;;;9.32;2.78;;;;;;;;;;5041942;28;20204;-72
2022/12/24 14:21:55;;;;;;;6.20;2.55;;;;;;;;;;5042174;28;20558;-72
2022/12/24 14:24:23;;;;;;;6.28;2.42;;;;;;;;;;5042067;28;20532;-72
2022/12/24 14:26:52;;;;;;;7.07;2.20;;;;;;;;;;5042278;28;20527;-72
2022/12/24 14:29:23;;;;;;;9.45;2.53;;;;;;;;;;5041746;28;20417;-72
2022/12/24 14:31:52;;;;;;;8.85;2.75;;;;;;;;;;5042005;27;20520;-72
2022/12/24 14:34:19;;;;;;;10.27;3.10;;;;;;;;;;5041932;28;20193;-72
2022/12/24 14:36:45;;;;;;;12.20;2.90;;;;;;;;;;5041964;28;20205;-71
2022/12/24 14:39:20;;;;;;;12.02;3.28;;;;;;;;;;5041696;28;20505;-71
2022/12/24 14:41:51;;;;;;;14.77;4.85;;;;;;;;;;5041951;28;20202;-71
2022/12/24 14:44:23;;;;;;;11.95;4.95;;;;;;;;;;5041938;28;20594;-71
2022/12/24 14:46:53;;;;;;;12.07;4.05;;;;;;;;;;5041845;28;20212;-72
2022/12/24 14:49:29;;;;;;;7.45;2.97;;;;;;;;;;5041371;28;20194;-72
2022/12/24 14:51:59;;;;;;;9.05;3.03;;;;;;;;;;5042015;28;20197;-72
2022/12/24 14:54:31;;;;;;;72.20;21.50;;;;;;;;;;5041992;27;20501;-72
2022/12/24 14:57:20;;;;;;;21.45;9.93;;;;;;;;;;5041860;28;20281;-71